Terminal Aerodrome Forecast
Issued by NWS Mobile, AL

Home | Current Version | Previous Version | Text Only | Print | Product List | Glossary On
Versions: 1 2 3 4 5 6 7 8 9 10 11 12
000
FTUS44 KMOB 221139
TAFMOB
TAF
KMOB 221139Z 2212/2312 12010KT P6SM VCSH BKN012 OVC019
     FM221700 16014G24KT 6SM BR VCTS OVC015CB
      TEMPO 2217/2221 VRB20G30KT 3SM TSRA BKN012CB
     FM222100 17014G24KT 4SM BR VCTS OVC025CB
      TEMPO 2221/2301 VRB12G22KT 3SM TSRA BKN015CB
     FM230300 24009KT P6SM OVC030=

USA.gov is the U.S. government's official web portal to all federal, state and local government web resources and services.